createdAt,value
2022-11-20T00:01:44.162Z,36.90
2022-11-20T00:04:13.175Z,44.53
2022-11-20T00:06:43.232Z,38.20
2022-11-20T00:09:12.569Z,45.27
2022-11-20T00:11:41.225Z,39.63
2022-11-20T00:14:11.877Z,32.47
2022-11-20T00:16:40.946Z,45.00
2022-11-20T00:19:09.584Z,41.13
2022-11-20T00:21:38.206Z,36.97
2022-11-20T00:24:11.159Z,39.40
2022-11-20T00:26:42.470Z,42.50
2022-11-20T00:29:11.671Z,42.77
2022-11-20T00:31:40.387Z,41.20
2022-11-20T00:34:09.035Z,41.40
2022-11-20T00:36:37.914Z,46.20
2022-11-20T00:39:08.067Z,42.20
2022-11-20T00:41:36.745Z,40.37
2022-11-20T00:44:05.504Z,37.20
2022-11-20T00:46:34.092Z,39.03
2022-11-20T00:49:02.769Z,42.67
2022-11-20T00:51:31.404Z,38.97
2022-11-20T00:54:01.150Z,40.93
2022-11-20T00:56:31.280Z,41.37
2022-11-20T00:59:02.298Z,37.57
2022-11-20T01:01:31.319Z,36.43
2022-11-20T01:04:01.691Z,45.67
2022-11-20T01:06:32.209Z,38.57
2022-11-20T01:09:03.121Z,36.47
2022-11-20T01:11:34.603Z,41.23
2022-11-20T01:14:05.381Z,34.67
2022-11-20T01:16:35.959Z,40.87
2022-11-20T01:19:07.483Z,39.47
2022-11-20T01:21:38.579Z,44.50
2022-11-20T01:24:09.161Z,39.73
2022-11-20T01:26:40.785Z,47.20
2022-11-20T01:29:12.101Z,44.27
2022-11-20T01:31:40.713Z,37.30
2022-11-20T01:34:12.879Z,37.87
2022-11-20T01:36:42.496Z,35.60
2022-11-20T01:39:16.213Z,39.47
2022-11-20T01:42:09.408Z,41.33
2022-11-20T01:44:58.513Z,35.50
2022-11-20T01:47:33.280Z,31.90
2022-11-20T01:50:06.472Z,36.90
2022-11-20T01:52:39.968Z,36.63
2022-11-20T01:55:11.484Z,40.60
2022-11-20T01:57:43.017Z,35.97
2022-11-20T02:00:14.266Z,43.87
2022-11-20T02:02:46.678Z,34.77
2022-11-20T02:05:22.314Z,37.73
2022-11-20T02:07:51.663Z,38.20
2022-11-20T02:10:20.667Z,42.77
2022-11-20T02:13:08.281Z,35.87
2022-11-20T02:15:37.062Z,44.57
2022-11-20T02:18:07.738Z,34.93
2022-11-20T02:20:36.412Z,33.07
2022-11-20T02:23:10.772Z,34.03
2022-11-20T02:25:43.188Z,33.47
2022-11-20T02:28:12.359Z,36.63
2022-11-20T02:30:40.973Z,38.37
2022-11-20T02:33:09.657Z,41.23
2022-11-20T02:35:48.315Z,35.47
2022-11-20T02:38:17.615Z,36.23
2022-11-20T02:40:51.374Z,36.03
2022-11-20T02:43:22.936Z,35.97
2022-11-20T02:45:52.212Z,28.83
2022-11-20T02:48:20.814Z,35.20
2022-11-20T02:50:49.614Z,35.00
2022-11-20T02:53:21.412Z,35.87
2022-11-20T02:55:51.461Z,39.17
2022-11-20T02:58:20.227Z,36.87
2022-11-20T03:00:48.867Z,37.20
2022-11-20T03:03:17.438Z,39.73
2022-11-20T03:05:46.108Z,41.87
2022-11-20T03:08:14.808Z,33.57
2022-11-20T03:10:43.539Z,30.30
2022-11-20T03:13:13.520Z,36.23
2022-11-20T03:15:42.526Z,35.87
2022-11-20T03:18:11.312Z,34.90
2022-11-20T03:20:39.985Z,31.47
2022-11-20T03:23:08.642Z,39.20
2022-11-20T03:25:37.272Z,35.27
2022-11-20T03:28:06.174Z,28.57
2022-11-20T03:30:37.031Z,37.80
2022-11-20T03:33:05.734Z,27.93
2022-11-20T03:35:34.290Z,30.50
2022-11-20T03:38:02.858Z,24.60
2022-11-20T03:40:31.396Z,35.37
2022-11-20T03:43:00.031Z,32.00
2022-11-20T03:45:29.003Z,31.73
2022-11-20T03:47:59.074Z,27.83
2022-11-20T03:50:28.503Z,33.73
2022-11-20T03:52:57.470Z,24.03
2022-11-20T03:55:26.161Z,25.80
2022-11-20T03:57:54.707Z,28.03
2022-11-20T04:00:23.347Z,29.30
2022-11-20T04:02:52.074Z,36.60
2022-11-20T04:05:23.379Z,29.90
2022-11-20T04:07:52.071Z,31.37
2022-11-20T04:10:20.788Z,23.83
2022-11-20T04:12:58.155Z,23.70
2022-11-20T04:15:29.290Z,27.67
2022-11-20T04:17:58.616Z,34.33
2022-11-20T04:20:33.547Z,34.70
2022-11-20T04:23:02.173Z,26.70
2022-11-20T04:25:30.856Z,28.57
2022-11-20T04:27:59.490Z,33.30
2022-11-20T04:30:28.543Z,25.00
2022-11-20T04:32:57.485Z,32.40
2022-11-20T04:35:26.275Z,24.33
2022-11-20T04:37:56.395Z,27.77
2022-11-20T04:40:28.092Z,29.63
2022-11-20T04:42:59.074Z,34.60
2022-11-20T04:45:28.687Z,26.07
2022-11-20T04:47:57.448Z,26.03
2022-11-20T04:50:26.314Z,25.53
2022-11-20T04:52:58.112Z,20.90
2022-11-20T04:55:27.350Z,25.33
2022-11-20T04:57:56.474Z,29.00
2022-11-20T05:00:25.062Z,25.13
2022-11-20T05:02:57.541Z,24.77
2022-11-20T05:05:26.345Z,21.67
2022-11-20T05:08:00.955Z,21.03
2022-11-20T05:10:30.065Z,23.57
2022-11-20T05:12:59.692Z,30.73
2022-11-20T05:15:29.252Z,24.73
2022-11-20T05:17:58.785Z,26.93
2022-11-20T05:20:27.783Z,25.70
2022-11-20T05:23:00.676Z,26.43
2022-11-20T05:25:29.322Z,24.33
2022-11-20T05:27:58.804Z,24.90
2022-11-20T05:30:28.397Z,25.37
2022-11-20T05:32:57.518Z,25.37
2022-11-20T05:35:26.217Z,25.23
2022-11-20T05:37:54.830Z,29.43
2022-11-20T05:40:24.903Z,26.63
2022-11-20T05:42:53.749Z,27.10
2022-11-20T05:45:22.406Z,29.50
2022-11-20T05:47:51.201Z,25.97
2022-11-20T05:50:19.860Z,24.20
2022-11-20T05:52:51.557Z,27.80
2022-11-20T05:55:20.453Z,25.53
2022-11-20T05:57:50.467Z,25.53
2022-11-20T06:00:19.821Z,19.23
2022-11-20T06:02:48.504Z,23.77
2022-11-20T06:05:17.315Z,28.87
2022-11-20T06:07:46.009Z,23.13
2022-11-20T06:10:14.640Z,30.13
2022-11-20T06:12:43.593Z,27.37
2022-11-20T06:15:14.779Z,26.67
2022-11-20T06:17:43.428Z,30.47
2022-11-20T06:20:12.838Z,25.03
2022-11-20T06:22:41.526Z,24.63
2022-11-20T06:25:10.584Z,23.50
2022-11-20T06:27:39.295Z,24.17
2022-11-20T06:30:09.017Z,27.70
2022-11-20T06:32:38.950Z,29.30
2022-11-20T06:35:08.074Z,28.20
2022-11-20T06:37:36.724Z,26.30
2022-11-20T06:40:06.325Z,22.70
2022-11-20T06:42:36.723Z,22.27
2022-11-20T06:45:07.971Z,24.97
2022-11-20T06:47:37.909Z,25.50
2022-11-20T06:50:07.311Z,28.17
2022-11-20T06:52:39.542Z,26.97
2022-11-20T06:55:12.023Z,30.97
2022-11-20T06:57:40.606Z,26.77
2022-11-20T07:00:10.441Z,30.63
2022-11-20T07:02:40.576Z,27.17
2022-11-20T07:05:09.358Z,29.70
2022-11-20T07:07:38.090Z,25.73
2022-11-20T07:10:07.988Z,22.20
2022-11-20T07:12:36.865Z,31.27
2022-11-20T07:15:09.029Z,28.77
2022-11-20T07:17:37.638Z,29.77
2022-11-20T07:20:11.858Z,25.70
2022-11-20T07:22:40.709Z,26.80
2022-11-20T07:25:12.678Z,25.83
2022-11-20T07:27:41.288Z,24.20
2022-11-20T07:30:10.600Z,24.07
2022-11-20T07:32:39.283Z,26.60
2022-11-20T07:35:10.240Z,20.77
2022-11-20T07:37:39.036Z,26.73
2022-11-20T07:40:08.329Z,23.80
2022-11-20T07:42:36.941Z,24.13
2022-11-20T07:45:06.321Z,20.13
2022-11-20T07:47:37.774Z,24.27
2022-11-20T07:50:07.464Z,26.53
2022-11-20T07:52:40.479Z,26.23
2022-11-20T07:55:10.687Z,36.30
2022-11-20T07:57:41.353Z,27.80
2022-11-20T08:00:12.594Z,25.60
2022-11-20T08:02:41.937Z,25.33
2022-11-20T08:05:11.923Z,24.40
2022-11-20T08:07:43.361Z,22.03
2022-11-20T08:10:16.070Z,17.90
2022-11-20T08:13:06.319Z,23.03
2022-11-20T08:15:35.342Z,27.00
2022-11-20T08:20:58.282Z,25.20
2022-11-20T08:23:29.124Z,22.03
2022-11-20T08:25:58.703Z,21.63
2022-11-20T08:28:27.985Z,20.93
2022-11-20T08:31:03.231Z,21.80
2022-11-20T08:33:33.660Z,36.10
2022-11-20T08:36:03.190Z,25.00
2022-11-20T08:38:33.875Z,29.30
2022-11-20T08:41:22.052Z,22.87
2022-11-20T08:43:51.040Z,26.37
2022-11-20T08:46:19.883Z,20.73
2022-11-20T08:48:48.545Z,19.83
2022-11-20T08:51:17.603Z,24.10
2022-11-20T08:53:49.601Z,26.00
2022-11-20T08:56:19.046Z,20.53
2022-11-20T08:59:17.907Z,24.43
2022-11-20T09:01:36.354Z,28.00
2022-11-20T09:04:05.779Z,26.13
2022-11-20T09:06:34.346Z,26.13
2022-11-20T09:09:06.905Z,24.77
2022-11-20T09:11:37.267Z,26.67
2022-11-20T09:14:06.176Z,25.57
2022-11-20T09:16:34.855Z,25.57
2022-11-20T09:21:54.605Z,28.20
2022-11-20T09:24:28.889Z,21.10
2022-11-20T09:27:00.863Z,24.53
2022-11-20T09:29:29.431Z,30.93
2022-11-20T09:31:58.734Z,22.03
2022-11-20T09:34:27.436Z,24.83
2022-11-20T09:36:56.683Z,28.30
2022-11-20T09:39:27.720Z,24.67
2022-11-20T09:42:30.279Z,21.83
2022-11-20T09:45:14.365Z,26.60
2022-11-20T09:47:56.166Z,28.73
2022-11-20T09:50:33.170Z,27.23
2022-11-20T09:53:15.680Z,29.53
2022-11-20T09:55:44.634Z,29.50
2022-11-20T09:58:24.780Z,30.60
2022-11-20T10:00:57.540Z,23.93
2022-11-20T10:03:38.320Z,27.83
2022-11-20T10:06:12.644Z,22.97
2022-11-20T10:08:46.807Z,23.50
2022-11-20T10:11:22.366Z,31.77
2022-11-20T10:14:02.282Z,21.43
2022-11-20T10:16:41.768Z,26.43
2022-11-20T10:19:26.922Z,33.87
2022-11-20T10:22:04.140Z,25.13
2022-11-20T10:24:52.878Z,28.53
2022-11-20T10:27:47.887Z,28.67
2022-11-20T10:30:21.066Z,24.67
2022-11-20T10:32:54.143Z,25.47
2022-11-20T10:35:29.689Z,24.97
2022-11-20T10:38:04.705Z,25.87
2022-11-20T10:40:40.023Z,29.97
2022-11-20T10:43:15.055Z,28.50
2022-11-20T10:45:52.655Z,25.07
2022-11-20T10:48:24.110Z,26.23
2022-11-20T10:51:01.749Z,31.70
2022-11-20T10:53:54.527Z,30.47
2022-11-20T10:56:28.578Z,30.17
2022-11-20T10:59:31.280Z,28.87
2022-11-20T11:02:03.373Z,35.67
2022-11-20T11:04:39.418Z,24.50
2022-11-20T11:07:14.411Z,37.03
2022-11-20T11:09:46.663Z,25.10
2022-11-20T11:12:15.724Z,29.27
2022-11-20T11:14:46.416Z,35.60
2022-11-20T11:17:27.890Z,29.03
2022-11-20T11:20:04.568Z,32.73
2022-11-20T11:22:35.628Z,27.30
2022-11-20T11:25:04.871Z,29.53
2022-11-20T11:27:33.534Z,24.43
2022-11-20T11:30:17.029Z,29.67
2022-11-20T11:32:47.258Z,34.60
2022-11-20T11:35:25.766Z,34.47
2022-11-20T11:38:03.403Z,30.73
2022-11-20T11:40:34.745Z,30.17
2022-11-20T11:43:29.601Z,31.83
2022-11-20T11:45:59.388Z,25.47
2022-11-20T11:48:29.576Z,28.27
2022-11-20T11:51:01.333Z,28.47
2022-11-20T11:53:31.188Z,25.73
2022-11-20T11:56:06.093Z,31.50
2022-11-20T11:58:45.532Z,28.03
2022-11-20T12:01:28.884Z,24.23
2022-11-20T12:04:06.117Z,32.13
2022-11-20T12:06:38.834Z,25.47
2022-11-20T12:09:11.283Z,28.50
2022-11-20T12:11:48.940Z,33.30
2022-11-20T12:14:25.012Z,30.90
2022-11-20T12:16:59.575Z,30.30
2022-11-20T12:19:34.192Z,22.90
2022-11-20T12:22:09.260Z,27.93
2022-11-20T12:24:49.294Z,28.20
2022-11-20T12:27:46.702Z,29.13
2022-11-20T12:30:17.209Z,36.37
2022-11-20T12:33:03.917Z,24.90
2022-11-20T12:35:45.987Z,27.33
2022-11-20T12:38:34.336Z,31.47
2022-11-20T12:41:15.066Z,26.20
2022-11-20T12:44:19.585Z,26.63
2022-11-20T12:46:51.957Z,25.57
2022-11-20T12:49:32.381Z,27.17
2022-11-20T12:52:19.482Z,24.87
2022-11-20T12:55:09.422Z,26.83
2022-11-20T12:57:45.757Z,29.80
2022-11-20T13:00:17.308Z,25.40
2022-11-20T13:03:09.089Z,23.20
2022-11-20T13:05:47.179Z,26.57
2022-11-20T13:08:24.372Z,22.13
2022-11-20T13:11:02.217Z,23.97
2022-11-20T13:13:42.077Z,24.57
2022-11-20T13:16:18.740Z,24.10
2022-11-20T13:18:47.611Z,28.47
2022-11-20T13:21:17.911Z,23.43
2022-11-20T13:23:48.121Z,29.10
2022-11-20T13:26:21.024Z,28.53
2022-11-20T13:29:01.785Z,26.57
2022-11-20T13:31:34.345Z,29.37
2022-11-20T13:34:06.555Z,25.00
2022-11-20T13:36:37.552Z,24.30
2022-11-20T13:39:07.633Z,24.37
2022-11-20T13:41:38.872Z,27.40
2022-11-20T13:44:14.815Z,25.43
2022-11-20T13:46:45.629Z,34.93
2022-11-20T13:49:20.888Z,24.43
2022-11-20T13:51:51.649Z,31.77
2022-11-20T13:54:52.896Z,33.13
2022-11-20T13:57:51.941Z,28.20
2022-11-20T14:00:22.416Z,32.67
2022-11-20T14:03:04.229Z,24.37
2022-11-20T14:05:37.073Z,32.30
2022-11-20T14:08:07.607Z,33.67
2022-11-20T14:10:40.291Z,29.40
2022-11-20T14:13:20.693Z,29.20
2022-11-20T14:15:49.532Z,21.43
2022-11-20T14:18:23.348Z,34.20
2022-11-20T14:20:52.027Z,23.57
2022-11-20T14:23:29.987Z,25.87
2022-11-20T14:26:01.583Z,32.77
2022-11-20T14:28:31.674Z,30.97
2022-11-20T14:31:00.441Z,28.97
2022-11-20T14:33:29.703Z,24.50
2022-11-20T14:36:01.582Z,31.93
2022-11-20T14:38:31.381Z,26.37
2022-11-20T14:41:20.757Z,34.27
2022-11-20T14:43:52.089Z,36.53
2022-11-20T14:46:21.034Z,28.00
2022-11-20T14:48:51.502Z,34.63
2022-11-20T14:51:31.398Z,33.20
2022-11-20T14:54:11.082Z,32.90
2022-11-20T14:56:41.213Z,32.97
2022-11-20T14:59:11.230Z,32.13
2022-11-20T15:01:39.875Z,29.63
2022-11-20T15:04:11.651Z,35.53
2022-11-20T15:06:51.985Z,36.90
2022-11-20T15:09:20.576Z,34.83
2022-11-20T15:11:58.397Z,28.87
2022-11-20T15:14:28.443Z,24.77
2022-11-20T15:17:00.330Z,36.30
2022-11-20T15:19:29.328Z,34.23
2022-11-20T15:21:58.556Z,31.53
2022-11-20T15:24:27.256Z,39.90
2022-11-20T15:26:57.451Z,34.63
2022-11-20T15:29:27.348Z,36.63
2022-11-20T15:31:57.132Z,35.73
2022-11-20T15:34:26.284Z,37.10
2022-11-20T15:36:56.031Z,34.30
2022-11-20T15:39:24.631Z,34.60
2022-11-20T15:41:53.208Z,37.40
2022-11-20T15:44:23.246Z,38.57
2022-11-20T15:46:53.328Z,37.37
2022-11-20T15:49:23.830Z,39.83
2022-11-20T15:51:53.694Z,35.00
2022-11-20T15:54:24.639Z,39.60
2022-11-20T15:56:54.223Z,38.80
2022-11-20T15:59:24.275Z,33.10
2022-11-20T16:01:52.947Z,38.00
2022-11-20T16:04:22.154Z,29.03
2022-11-20T16:06:51.160Z,35.93
2022-11-20T16:09:19.778Z,37.30
2022-11-20T16:11:48.361Z,41.27
2022-11-20T16:14:34.232Z,33.57
2022-11-20T16:17:04.927Z,43.60
2022-11-20T16:19:33.480Z,46.80
2022-11-20T16:22:03.416Z,53.47
2022-11-20T16:24:32.442Z,46.23
2022-11-20T16:27:01.104Z,36.93
2022-11-20T16:29:29.675Z,33.43
2022-11-20T16:32:01.116Z,34.90
2022-11-20T16:34:31.125Z,41.17
2022-11-20T16:36:59.680Z,39.60
2022-11-20T16:39:31.514Z,38.80
2022-11-20T16:42:00.053Z,41.03
2022-11-20T16:44:29.166Z,38.20
2022-11-20T16:47:01.400Z,30.60
2022-11-20T16:49:32.193Z,45.57
2022-11-20T16:52:01.270Z,54.00
2022-11-20T16:54:29.896Z,35.10
2022-11-20T16:56:59.042Z,45.43
2022-11-20T16:59:28.498Z,39.30
2022-11-20T17:01:57.593Z,48.60
2022-11-20T17:04:26.627Z,43.90
2022-11-20T17:06:57.421Z,47.33
2022-11-20T17:09:26.480Z,48.77
2022-11-20T17:11:55.027Z,45.80
2022-11-20T17:14:23.793Z,40.67
2022-11-20T17:16:52.615Z,43.57
2022-11-20T17:19:21.387Z,42.30
2022-11-20T17:21:50.014Z,44.90
2022-11-20T17:24:21.147Z,44.77
2022-11-20T17:26:50.723Z,46.60
2022-11-20T17:29:24.032Z,54.90
2022-11-20T17:31:52.987Z,68.27
2022-11-20T17:34:22.215Z,50.53
2022-11-20T17:36:51.012Z,47.13
2022-11-20T17:39:25.543Z,53.80
2022-11-20T17:42:08.740Z,58.70
2022-11-20T17:44:39.386Z,51.53
2022-11-20T17:47:08.003Z,58.47
2022-11-20T17:49:36.779Z,50.73
2022-11-20T17:52:05.919Z,58.43
2022-11-20T17:54:38.969Z,53.23
2022-11-20T17:57:25.958Z,43.27
2022-11-20T17:59:54.583Z,44.87
2022-11-20T18:02:23.201Z,41.70
2022-11-20T18:04:51.904Z,46.50
2022-11-20T18:07:20.592Z,44.93
2022-11-20T18:09:51.455Z,52.87
2022-11-20T18:12:20.275Z,65.27
2022-11-20T18:14:48.955Z,65.17
2022-11-20T18:17:20.468Z,51.03
2022-11-20T18:20:21.378Z,64.47
2022-11-20T18:22:39.533Z,56.20
2022-11-20T18:25:10.603Z,54.17
2022-11-20T18:27:39.511Z,52.00
2022-11-20T18:30:09.276Z,63.67
2022-11-20T18:32:38.112Z,51.93
2022-11-20T18:35:07.861Z,44.90
2022-11-20T18:37:36.505Z,41.50
2022-11-20T18:40:05.670Z,51.63
2022-11-20T18:42:54.998Z,61.13
2022-11-20T18:45:23.682Z,52.10
2022-11-20T18:47:52.357Z,51.57
2022-11-20T18:50:21.080Z,54.87
2022-11-20T18:52:49.724Z,59.70
2022-11-20T18:55:18.416Z,57.97
2022-11-20T18:57:48.499Z,53.77
2022-11-20T19:00:17.950Z,59.23
2022-11-20T19:02:46.639Z,61.27
2022-11-20T19:05:16.530Z,57.43
2022-11-20T19:07:45.210Z,48.30
2022-11-20T19:10:14.034Z,65.00
2022-11-20T19:12:42.762Z,50.47
2022-11-20T19:15:13.059Z,61.97
2022-11-20T19:17:42.039Z,51.63
2022-11-20T19:20:11.802Z,58.37
2022-11-20T19:22:40.487Z,49.97
2022-11-20T19:25:10.192Z,47.13
2022-11-20T19:27:39.337Z,61.57
2022-11-20T19:30:08.983Z,52.43
2022-11-20T19:32:39.278Z,64.60
2022-11-20T19:35:08.446Z,91.03
2022-11-20T19:37:37.201Z,48.10
2022-11-20T19:40:06.399Z,59.33
2022-11-20T19:42:36.155Z,60.17
2022-11-20T19:45:04.976Z,65.30
2022-11-20T19:48:06.075Z,96.60
2022-11-20T19:50:23.626Z,51.10
2022-11-20T19:52:58.390Z,52.20
2022-11-20T19:55:30.654Z,73.20
2022-11-20T19:57:59.590Z,74.10
2022-11-20T20:00:32.963Z,47.77
2022-11-20T20:03:01.913Z,52.63
2022-11-20T20:05:32.151Z,51.73
2022-11-20T20:08:01.046Z,62.40
2022-11-20T20:10:29.836Z,52.63
2022-11-20T20:13:01.388Z,45.23
2022-11-20T20:15:30.172Z,57.83
2022-11-20T20:18:04.285Z,100.27
2022-11-20T20:20:34.473Z,51.73
2022-11-20T20:23:07.111Z,61.70
2022-11-20T20:25:37.978Z,51.33
2022-11-20T20:28:06.950Z,45.27
2022-11-20T20:30:37.951Z,47.20
2022-11-20T20:33:06.645Z,56.13
2022-11-20T20:35:42.977Z,55.27
2022-11-20T20:38:11.770Z,46.90
2022-11-20T20:40:40.748Z,41.10
2022-11-20T20:43:09.568Z,56.63
2022-11-20T20:45:38.709Z,36.67
2022-11-20T20:48:07.719Z,45.53
2022-11-20T20:50:39.350Z,44.50
2022-11-20T20:53:09.422Z,49.40
2022-11-20T20:55:38.205Z,37.90
2022-11-20T20:58:06.785Z,44.83
2022-11-20T21:00:35.525Z,48.27
2022-11-20T21:03:04.443Z,59.00
2022-11-20T21:05:33.086Z,33.43
2022-11-20T21:08:19.533Z,48.63
2022-11-20T21:10:49.596Z,48.43
2022-11-20T21:13:18.367Z,51.30
2022-11-20T21:15:49.108Z,49.70
2022-11-20T21:18:19.428Z,40.70
2022-11-20T21:21:06.273Z,36.43
2022-11-20T21:23:37.440Z,42.87
2022-11-20T21:26:09.717Z,37.20
2022-11-20T21:28:39.090Z,46.77
2022-11-20T21:31:09.285Z,44.60
2022-11-20T21:33:43.316Z,44.57
2022-11-20T21:36:14.574Z,45.33
2022-11-20T21:38:45.250Z,43.60
2022-11-20T21:41:19.474Z,36.83
2022-11-20T21:44:09.190Z,36.43
2022-11-20T21:46:41.249Z,37.10
2022-11-20T21:49:10.332Z,40.43
2022-11-20T21:51:39.275Z,44.03
2022-11-20T21:54:08.153Z,39.57
2022-11-20T21:56:38.138Z,43.43
2022-11-20T21:59:12.225Z,78.17
2022-11-20T22:01:41.799Z,47.40
2022-11-20T22:04:14.947Z,45.40
2022-11-20T22:06:45.518Z,36.07
2022-11-20T22:09:16.758Z,39.30
2022-11-20T22:11:47.078Z,36.57
2022-11-20T22:14:26.046Z,38.07
2022-11-20T22:16:55.223Z,40.07
2022-11-20T22:19:24.764Z,42.07
2022-11-20T22:21:53.454Z,37.23
2022-11-20T22:24:25.449Z,24.93
2022-11-20T22:26:56.000Z,37.20
2022-11-20T22:29:24.761Z,28.97
2022-11-20T22:31:54.111Z,41.80
2022-11-20T22:34:23.128Z,39.90
2022-11-20T22:36:52.325Z,41.40
2022-11-20T22:39:23.263Z,35.10
2022-11-20T22:41:52.160Z,37.87
2022-11-20T22:44:22.811Z,35.27
2022-11-20T22:46:51.666Z,47.60
2022-11-20T22:49:20.240Z,35.07
2022-11-20T22:51:49.045Z,37.23
2022-11-20T22:54:17.820Z,42.87
2022-11-20T22:56:47.128Z,38.10
2022-11-20T22:59:18.544Z,40.53
2022-11-20T23:01:48.652Z,34.33
2022-11-20T23:04:17.380Z,27.27
2022-11-20T23:06:46.152Z,45.47
2022-11-20T23:09:15.020Z,35.63
2022-11-20T23:11:44.082Z,32.10
2022-11-20T23:14:15.883Z,40.13
2022-11-20T23:16:44.810Z,34.17
2022-11-20T23:19:15.943Z,44.43
2022-11-20T23:21:45.042Z,40.77
2022-11-20T23:24:13.748Z,34.13
2022-11-20T23:26:43.303Z,40.33
2022-11-20T23:29:13.737Z,43.93
2022-11-20T23:31:43.255Z,40.47
2022-11-20T23:34:16.145Z,34.90
2022-11-20T23:36:44.845Z,44.40
2022-11-20T23:39:15.078Z,43.33
2022-11-20T23:41:43.946Z,35.73
2022-11-20T23:44:23.587Z,40.93
2022-11-20T23:46:52.259Z,41.47
2022-11-20T23:49:22.392Z,42.13
2022-11-20T23:51:51.067Z,35.03
2022-11-20T23:54:19.751Z,43.97
2022-11-20T23:56:48.486Z,41.40
2022-11-20T23:59:17.321Z,41.80
